Time;durP1;ratioP1;P1;durP2;ratioP2;P2;SDS_P1;SDS_P2;PMS_P1;PMS_P2;Temp;Humidity;BMP_temperature;BMP_pressure;BME280_temperature;BME280_humidity;BME280_pressure;Samples;Min_cycle;Max_cycle;Signal;HPM_P1;HPM_P2
2022/04/09 00:00:33;;;;;;;4.83;3.10;;;9.00;96.20;;;;;;5052784;28;20424;-67
2022/04/09 00:02:59;;;;;;;3.43;2.90;;;9.00;96.30;;;;;;5052009;28;20452;-68
2022/04/09 00:05:26;;;;;;;5.97;3.17;;;9.00;96.70;;;;;;5051857;28;20427;-68
2022/04/09 00:07:52;;;;;;;5.60;2.90;;;9.00;96.30;;;;;;5051136;28;20941;-68
2022/04/09 00:10:18;;;;;;;5.67;3.37;;;9.00;96.40;;;;;;5051334;28;20767;-68
2022/04/09 00:12:46;;;;;;;3.23;2.20;;;9.00;96.80;;;;;;5052153;28;20432;-67
2022/04/09 00:15:12;;;;;;;6.90;2.70;;;9.00;96.90;;;;;;5052093;28;20444;-68
2022/04/09 00:17:43;;;;;;;6.30;2.60;;;8.90;96.90;;;;;;5052248;28;20412;-67
2022/04/09 00:20:10;;;;;;;5.80;2.80;;;9.00;96.70;;;;;;5051517;28;20499;-73
2022/04/09 00:22:38;;;;;;;6.97;2.90;;;9.00;96.60;;;;;;5052406;28;20625;-67
2022/04/09 00:25:06;;;;;;;4.50;2.50;;;8.90;96.70;;;;;;5050539;28;20476;-67
2022/04/09 00:27:32;;;;;;;8.03;2.57;;;8.90;96.70;;;;;;5051523;28;20429;-67
2022/04/09 00:29:58;;;;;;;4.07;2.60;;;9.00;96.90;;;;;;5051702;28;20935;-67
2022/04/09 00:32:24;;;;;;;3.77;2.90;;;9.00;96.90;;;;;;5051044;28;20432;-68
2022/04/09 00:34:50;;;;;;;4.70;2.77;;;9.00;96.80;;;;;;5052007;28;20424;-67
2022/04/09 00:37:16;;;;;;;3.97;3.03;;;9.00;96.70;;;;;;5051030;28;20424;-67
2022/04/09 00:39:42;;;;;;;3.77;2.60;;;8.90;96.80;;;;;;5051762;28;20540;-67
2022/04/09 00:42:18;;;;;;;4.30;2.77;;;9.30;97.10;;;;;;5050975;28;20255;-72
2022/04/09 00:44:45;;;;;;;5.17;2.90;;;9.00;97.50;;;;;;5032312;28;20421;-67
2022/04/09 00:47:11;;;;;;;4.10;2.53;;;8.90;97.20;;;;;;5033731;28;20489;-71
2022/04/09 00:49:39;;;;;;;3.03;2.73;;;8.90;97.30;;;;;;5050825;28;20841;-67
2022/04/09 00:52:07;;;;;;;5.13;3.27;;;9.00;97.60;;;;;;5051498;28;20920;-68
2022/04/09 00:54:37;;;;;;;5.90;4.30;;;9.10;97.70;;;;;;5051271;28;20420;-68
2022/04/09 00:57:05;;;;;;;3.20;2.90;;;8.90;97.60;;;;;;5049988;28;20778;-67
2022/04/09 00:59:41;;;;;;;4.00;3.53;;;8.90;97.80;;;;;;5050742;28;20412;-67
2022/04/09 01:02:08;;;;;;;4.60;3.73;;;9.00;97.80;;;;;;5051764;28;20471;-72
2022/04/09 01:04:39;;;;;;;3.83;2.80;;;8.60;98.00;;;;;;5050251;28;20476;-67
2022/04/09 01:07:05;;;;;;;6.73;3.60;;;8.90;98.50;;;;;;5050995;28;20423;-67
2022/04/09 01:09:31;;;;;;;8.10;3.97;;;8.80;98.10;;;;;;5051150;28;21037;-67
2022/04/09 01:11:57;;;;;;;4.30;3.50;;;8.80;98.00;;;;;;5051862;28;20174;-68
2022/04/09 01:14:22;;;;;;;11.17;4.03;;;8.80;98.80;;;;;;5050678;28;20621;-67
2022/04/09 01:16:49;;;;;;;6.30;3.57;;;8.80;98.90;;;;;;5051094;28;20512;-68
2022/04/09 01:19:14;;;;;;;6.43;3.80;;;8.80;98.90;;;;;;5050737;28;20181;-68
2022/04/09 01:21:40;;;;;;;7.93;4.00;;;8.90;98.70;;;;;;5050087;28;20452;-67
2022/04/09 01:24:06;;;;;;;6.90;3.50;;;8.90;98.80;;;;;;5051363;28;20209;-67
2022/04/09 01:26:32;;;;;;;6.10;4.10;;;8.80;98.90;;;;;;5050482;28;20212;-67
2022/04/09 01:28:58;;;;;;;7.17;4.07;;;8.80;99.00;;;;;;5051411;28;20421;-67
2022/04/09 01:31:24;;;;;;;9.53;3.60;;;8.80;99.10;;;;;;5049523;28;20440;-68
2022/04/09 01:33:50;;;;;;;9.10;4.90;;;8.80;99.10;;;;;;5051318;28;20455;-68
2022/04/09 01:36:16;;;;;;;11.17;3.57;;;8.80;99.10;;;;;;5032964;28;20428;-68
2022/04/09 01:38:42;;;;;;;4.20;3.67;;;8.40;98.80;;;;;;5051438;28;20608;-67
2022/04/09 01:41:07;;;;;;;5.50;4.17;;;8.80;98.90;;;;;;5051029;28;20536;-68
2022/04/09 01:43:34;;;;;;;8.87;4.40;;;8.80;99.40;;;;;;5050239;28;20476;-68
2022/04/09 01:46:00;;;;;;;8.50;5.03;;;8.70;99.00;;;;;;5051674;28;20413;-68
2022/04/09 01:48:26;;;;;;;5.10;4.20;;;8.70;98.90;;;;;;5050291;28;20763;-68
2022/04/09 01:50:52;;;;;;;6.73;5.47;;;8.70;98.80;;;;;;5051286;28;20412;-68
2022/04/09 01:53:19;;;;;;;11.07;4.50;;;8.70;98.80;;;;;;5050502;28;20194;-68
2022/04/09 01:55:44;;;;;;;7.50;4.80;;;8.40;98.60;;;;;;5051111;28;20413;-68
2022/04/09 01:58:10;;;;;;;9.17;4.63;;;8.80;98.90;;;;;;5053180;28;20423;-68
2022/04/09 02:00:36;;;;;;;7.73;4.30;;;8.80;98.80;;;;;;5054429;28;20561;-68
2022/04/09 02:03:02;;;;;;;7.03;4.40;;;8.60;98.80;;;;;;5054415;28;20570;-68
2022/04/09 02:05:27;;;;;;;5.80;4.73;;;8.80;98.80;;;;;;5052635;28;20428;-68
2022/04/09 02:07:53;;;;;;;8.03;5.13;;;8.80;99.00;;;;;;5053667;28;20174;-68
2022/04/09 02:10:19;;;;;;;6.83;4.43;;;8.80;99.10;;;;;;5052464;28;20182;-68
2022/04/09 02:12:46;;;;;;;10.63;5.43;;;8.80;99.40;;;;;;5053233;28;20916;-68
2022/04/09 02:15:14;;;;;;;12.00;5.00;;;8.40;99.30;;;;;;5054581;28;20416;-73
2022/04/09 02:17:42;;;;;;;11.43;4.63;;;8.70;99.30;;;;;;5054222;28;20466;-68
2022/04/09 02:20:10;;;;;;;8.40;4.37;;;8.70;99.40;;;;;;5054472;28;20456;-68
2022/04/09 02:22:41;;;;;;;8.83;4.77;;;8.70;99.20;;;;;;5053645;28;21042;-66
2022/04/09 02:25:09;;;;;;;6.20;4.80;;;8.70;99.10;;;;;;5054252;28;20428;-67
2022/04/09 02:27:35;;;;;;;9.33;5.17;;;8.70;99.10;;;;;;5052825;28;20452;-67
2022/04/09 02:30:02;;;;;;;10.07;4.70;;;8.70;98.90;;;;;;5054115;28;20416;-67
2022/04/09 02:32:28;;;;;;;10.27;5.10;;;8.70;99.30;;;;;;5069147;28;20428;-67
2022/04/09 02:34:56;;;;;;;5.70;4.30;;;8.70;99.10;;;;;;5054521;28;20503;-67
2022/04/09 02:37:22;;;;;;;5.90;4.30;;;8.80;99.10;;;;;;5053536;28;20570;-67
2022/04/09 02:39:48;;;;;;;7.53;4.60;;;8.70;98.90;;;;;;5053133;28;20411;-67
2022/04/09 02:42:14;;;;;;;10.60;4.80;;;8.70;98.90;;;;;;5055287;28;20494;-78
2022/04/09 02:44:41;;;;;;;6.20;4.50;;;8.20;98.90;;;;;;5053533;28;20416;-67
2022/04/09 02:47:07;;;;;;;9.70;5.77;;;8.70;99.10;;;;;;5053872;28;20419;-66
2022/04/09 02:49:32;;;;;;;6.83;5.50;;;8.60;99.30;;;;;;5068797;28;20919;-67
2022/04/09 02:51:58;;;;;;;6.23;5.03;;;8.60;99.40;;;;;;5053555;28;20420;-67
2022/04/09 02:54:24;;;;;;;10.27;5.30;;;8.50;99.30;;;;;;5051580;28;20188;-70
2022/04/09 02:56:50;;;;;;;8.97;5.07;;;8.50;99.70;;;;;;5053335;28;20470;-67
2022/04/09 02:59:15;;;;;;;6.50;4.67;;;8.50;99.60;;;;;;5053200;28;20626;-80
2022/04/09 03:01:45;;;;;;;10.40;5.40;;;8.40;99.80;;;;;;5051729;28;20270;-67
2022/04/09 03:04:11;;;;;;;7.70;4.60;;;8.40;99.90;;;;;;5053749;28;20212;-67
2022/04/09 03:06:36;;;;;;;8.77;5.10;;;8.40;99.90;;;;;;5052723;28;21099;-67
2022/04/09 03:09:03;;;;;;;9.73;5.00;;;8.40;99.70;;;;;;5035082;28;20649;-67
2022/04/09 03:11:29;;;;;;;12.03;5.07;;;8.50;99.80;;;;;;5052169;28;20268;-67
2022/04/09 03:13:54;;;;;;;6.77;5.33;;;8.20;99.50;;;;;;5053990;28;20491;-67
2022/04/09 03:16:20;;;;;;;6.57;4.97;;;8.50;99.70;;;;;;5052937;28;20177;-67
2022/04/09 03:18:46;;;;;;;7.10;4.70;;;8.50;99.40;;;;;;5053290;28;20181;-67
2022/04/09 03:21:11;;;;;;;6.53;5.27;;;8.70;99.90;;;;;;5053166;28;20700;-67
2022/04/09 03:23:37;;;;;;;8.50;4.40;;;8.60;99.50;;;;;;5049896;28;20653;-67
2022/04/09 03:26:05;;;;;;;10.83;4.50;;;8.50;99.90;;;;;;5053546;28;20184;-67
2022/04/09 03:28:31;;;;;;;5.60;4.10;;;8.50;99.60;;;;;;5052755;28;20174;-67
2022/04/09 03:30:57;;;;;;;8.17;4.63;;;8.60;99.50;;;;;;5052669;28;20783;-68
2022/04/09 03:33:23;;;;;;;9.00;5.13;;;8.50;99.80;;;;;;5052292;28;20547;-69
2022/04/09 03:35:49;;;;;;;8.70;4.77;;;8.50;99.50;;;;;;5052002;28;20519;-68
2022/04/09 03:38:15;;;;;;;6.20;4.70;;;8.10;99.30;;;;;;5052369;28;20444;-68
2022/04/09 03:40:42;;;;;;;7.73;3.67;;;8.70;99.30;;;;;;5052424;28;20420;-68
2022/04/09 03:43:08;;;;;;;7.07;5.90;;;8.50;99.30;;;;;;5052209;28;20205;-68
2022/04/09 03:45:33;;;;;;;4.93;3.63;;;8.50;99.40;;;;;;5050839;28;21043;-68
2022/04/09 03:48:00;;;;;;;6.90;5.87;;;8.40;99.30;;;;;;5052044;28;20173;-68
2022/04/09 03:50:26;;;;;;;4.80;4.30;;;8.00;99.20;;;;;;5052519;28;20189;-68
2022/04/09 03:52:52;;;;;;;11.50;4.03;;;8.50;99.70;;;;;;5052662;28;20420;-68
2022/04/09 03:55:18;;;;;;;7.33;4.70;;;8.40;99.80;;;;;;5035097;28;20413;-71
2022/04/09 03:57:44;;;;;;;6.80;5.20;;;8.30;99.70;;;;;;5051100;28;20218;-68
2022/04/09 04:00:10;;;;;;;8.27;3.93;;;8.40;99.70;;;;;;5053143;28;20450;-68
2022/04/09 04:02:36;;;;;;;8.60;4.40;;;8.40;99.90;;;;;;5052213;28;20201;-68
2022/04/09 04:05:02;;;;;;;10.43;5.03;;;8.30;99.90;;;;;;5052558;28;20400;-68
2022/04/09 04:07:30;;;;;;;8.03;4.03;;;8.30;99.90;;;;;;5050786;28;20412;-68
2022/04/09 04:09:56;;;;;;;5.83;4.20;;;8.30;99.60;;;;;;5052747;28;20810;-68
2022/04/09 04:12:21;;;;;;;7.50;4.27;;;8.30;99.50;;;;;;5051811;28;20435;-71
2022/04/09 04:14:47;;;;;;;7.53;3.93;;;8.30;99.60;;;;;;5052126;28;20184;-68
2022/04/09 04:17:13;;;;;;;9.60;4.80;;;8.30;99.50;;;;;;5052009;28;20181;-68
2022/04/09 04:19:39;;;;;;;8.33;4.23;;;7.90;99.90;;;;;;5050493;28;20181;-68
2022/04/09 04:22:07;;;;;;;5.80;4.47;;;8.30;99.90;;;;;;5052499;28;20555;-68
2022/04/09 04:24:37;;;;;;;5.20;3.80;;;8.20;99.60;;;;;;5051594;28;20434;-68
2022/04/09 04:27:06;;;;;;;11.67;4.50;;;8.10;99.90;;;;;;5052238;28;20412;-69
2022/04/09 04:29:33;;;;;;;9.30;4.73;;;8.10;99.70;;;;;;5051779;28;20411;-69
2022/04/09 04:31:59;;;;;;;7.30;4.10;;;8.10;99.80;;;;;;5051997;28;20423;-68
2022/04/09 04:34:25;;;;;;;10.13;4.00;;;8.20;99.80;;;;;;5051503;28;20408;-70
2022/04/09 04:36:50;;;;;;;8.93;4.20;;;8.20;99.90;;;;;;5050975;28;20441;-69
2022/04/09 04:39:16;;;;;;;8.40;4.73;;;8.20;99.80;;;;;;5050727;28;20693;-68
2022/04/09 04:41:42;;;;;;;9.37;4.50;;;8.20;99.60;;;;;;5050240;28;20176;-68
2022/04/09 04:44:09;;;;;;;6.53;4.17;;;8.20;99.60;;;;;;5050955;28;20212;-68
2022/04/09 04:46:36;;;;;;;8.30;4.27;;;8.30;99.80;;;;;;5050895;28;20543;-68
2022/04/09 04:49:03;;;;;;;10.33;3.97;;;8.20;99.90;;;;;;5051852;28;20416;-68
2022/04/09 04:51:29;;;;;;;12.60;3.93;;;8.00;99.90;;;;;;5051397;28;20412;-69
2022/04/09 04:53:54;;;;;;;9.70;5.50;;;8.20;99.90;;;;;;5050307;28;20422;-68
2022/04/09 04:56:23;;;;;;;6.80;4.70;;;8.20;99.60;;;;;;5052045;28;20412;-68
2022/04/09 04:58:49;;;;;;;6.50;3.80;;;7.70;99.20;;;;;;5051954;28;20180;-68
2022/04/09 05:01:15;;;;;;;5.40;3.97;;;8.20;99.50;;;;;;5033897;28;20769;-68
2022/04/09 05:03:41;;;;;;;7.47;4.70;;;8.20;99.20;;;;;;5050925;28;20463;-68
2022/04/09 05:06:07;;;;;;;9.53;5.40;;;8.20;99.30;;;;;;5051428;28;20490;-68
2022/04/09 05:08:33;;;;;;;8.47;4.77;;;8.20;99.20;;;;;;5051426;28;20180;-69
2022/04/09 05:10:58;;;;;;;6.50;4.40;;;8.30;99.30;;;;;;5051799;28;20193;-68
2022/04/09 05:13:24;;;;;;;4.53;3.73;;;8.40;99.20;;;;;;5049770;28;20190;-71
2022/04/09 05:15:50;;;;;;;7.50;4.07;;;8.20;99.00;;;;;;5050014;28;20242;-68
2022/04/09 05:18:16;;;;;;;6.07;4.00;;;8.20;99.20;;;;;;5051406;28;20172;-69
2022/04/09 05:20:41;;;;;;;7.03;4.50;;;8.40;99.50;;;;;;5050614;28;20209;-69
2022/04/09 05:23:07;;;;;;;9.50;4.17;;;8.10;99.50;;;;;;5051058;28;20208;-68
2022/04/09 05:25:33;;;;;;;6.50;5.23;;;8.10;99.50;;;;;;5049458;28;20597;-68
2022/04/09 05:28:08;;;;;;;9.03;4.43;;;8.30;99.50;;;;;;5051579;28;20200;-68
2022/04/09 05:30:34;;;;;;;5.60;4.00;;;8.00;99.40;;;;;;5050965;28;20207;-68
2022/04/09 05:33:00;;;;;;;11.27;4.97;;;8.20;99.70;;;;;;5035965;28;20412;-68
2022/04/09 05:35:26;;;;;;;8.20;3.93;;;8.20;99.60;;;;;;5053303;28;20415;-72
2022/04/09 05:37:52;;;;;;;6.53;3.80;;;8.30;99.40;;;;;;5055319;28;20900;-68
2022/04/09 05:40:18;;;;;;;6.10;4.20;;;8.40;99.20;;;;;;5070762;28;20182;-68
2022/04/09 05:42:44;;;;;;;5.80;3.87;;;8.50;99.20;;;;;;5054354;28;20209;-68
2022/04/09 05:45:11;;;;;;;9.80;4.83;;;7.90;98.80;;;;;;5054128;28;20417;-68
2022/04/09 05:47:44;;;;;;;8.20;4.13;;;8.50;99.00;;;;;;5054115;28;20188;-68
2022/04/09 05:50:11;;;;;;;10.63;3.93;;;8.60;98.80;;;;;;5055284;28;20404;-68
2022/04/09 05:52:37;;;;;;;11.37;4.43;;;8.50;98.80;;;;;;5053168;28;20424;-68
2022/04/09 05:55:04;;;;;;;6.70;4.10;;;8.50;99.00;;;;;;5055201;28;20400;-68
2022/04/09 05:57:31;;;;;;;9.03;4.43;;;8.50;98.60;;;;;;5054390;28;20400;-69
2022/04/09 05:59:57;;;;;;;9.10;5.60;;;8.50;98.80;;;;;;5053642;28;20412;-69
2022/04/09 06:02:23;;;;;;;9.30;4.03;;;8.60;98.70;;;;;;5054778;28;20955;-68
2022/04/09 06:04:49;;;;;;;5.00;3.80;;;8.60;98.70;;;;;;5054023;28;20420;-68
2022/04/09 06:07:14;;;;;;;5.70;3.67;;;8.20;98.50;;;;;;5053249;28;20178;-68
2022/04/09 06:09:44;;;;;;;11.20;4.20;;;8.40;98.60;;;;;;5052612;28;20535;-68
2022/04/09 06:12:10;;;;;;;6.40;4.60;;;8.60;98.90;;;;;;5053228;28;20642;-68
2022/04/09 06:14:36;;;;;;;7.50;3.53;;;8.40;99.20;;;;;;5053674;28;20761;-68
2022/04/09 06:17:02;;;;;;;11.83;4.47;;;8.50;99.50;;;;;;5053344;28;20408;-68
2022/04/09 06:19:29;;;;;;;7.03;4.60;;;8.40;99.50;;;;;;5052476;28;20456;-71
2022/04/09 06:21:56;;;;;;;6.37;4.20;;;8.40;99.60;;;;;;5054158;28;20459;-68
2022/04/09 06:24:22;;;;;;;7.23;4.30;;;8.50;99.40;;;;;;5054181;28;20475;-68
2022/04/09 06:26:48;;;;;;;10.23;4.63;;;8.40;99.30;;;;;;5048243;28;21127;-68
2022/04/09 06:29:13;;;;;;;5.83;4.33;;;8.40;99.50;;;;;;5034398;28;20501;-68
2022/04/09 06:31:39;;;;;;;5.27;3.90;;;8.00;99.40;;;;;;5033516;28;20185;-68
2022/04/09 06:34:05;;;;;;;7.60;4.90;;;8.50;99.50;;;;;;5054728;28;20192;-68
2022/04/09 06:36:31;;;;;;;5.13;4.37;;;8.50;99.40;;;;;;5052297;28;20201;-70
2022/04/09 06:38:56;;;;;;;8.20;4.80;;;8.70;99.70;;;;;;5054198;28;20190;-68
2022/04/09 06:41:22;;;;;;;8.83;4.20;;;8.60;99.80;;;;;;5053923;28;20629;-68
2022/04/09 06:43:48;;;;;;;13.20;4.73;;;8.70;99.90;;;;;;5052295;28;20224;-68
2022/04/09 06:46:16;;;;;;;4.93;4.40;;;8.70;99.90;;;;;;5052782;28;20420;-68
2022/04/09 06:48:42;;;;;;;6.13;4.10;;;8.30;99.90;;;;;;5053260;28;20404;-68
2022/04/09 06:51:08;;;;;;;8.70;5.37;;;8.70;99.90;;;;;;5052892;28;20481;-68
2022/04/09 06:53:34;;;;;;;4.77;4.17;;;8.60;99.90;;;;;;5052090;28;20482;-68
2022/04/09 06:56:00;;;;;;;10.73;4.47;;;8.60;99.90;;;;;;5054122;28;20888;-68
2022/04/09 06:58:26;;;;;;;8.33;3.90;;;8.80;99.90;;;;;;5052902;28;20420;-68
2022/04/09 07:00:51;;;;;;;15.70;6.83;;;8.60;99.90;;;;;;5053019;28;20558;-68
2022/04/09 07:03:17;;;;;;;6.07;4.50;;;8.60;99.90;;;;;;5052375;28;20208;-68
2022/04/09 07:05:43;;;;;;;7.47;4.47;;;8.60;99.90;;;;;;5051688;28;20173;-68
2022/04/09 07:08:09;;;;;;;7.40;5.20;;;8.60;99.90;;;;;;5052433;28;20704;-68
2022/04/09 07:10:38;;;;;;;7.23;4.47;;;8.60;99.90;;;;;;5053046;28;20489;-69
2022/04/09 07:13:05;;;;;;;10.00;4.60;;;8.50;99.90;;;;;;5052819;28;20421;-68
2022/04/09 07:15:31;;;;;;;11.37;4.10;;;8.70;99.90;;;;;;5051953;28;20416;-79
2022/04/09 07:17:57;;;;;;;11.40;4.03;;;8.80;99.90;;;;;;5053325;28;20408;-68
2022/04/09 07:20:23;;;;;;;8.80;4.53;;;8.90;99.90;;;;;;5053407;28;20790;-69
2022/04/09 07:22:48;;;;;;;5.83;4.73;;;9.10;99.70;;;;;;5052496;28;20237;-68
2022/04/09 07:25:16;;;;;;;5.23;3.87;;;8.90;99.40;;;;;;5053311;28;20272;-68
2022/04/09 07:27:47;;;;;;;7.87;5.00;;;8.90;99.30;;;;;;5052982;28;20636;-68
2022/04/09 07:30:16;;;;;;;7.30;5.03;;;9.00;99.80;;;;;;5053600;28;20420;-68
2022/04/09 07:32:43;;;;;;;9.20;5.03;;;8.70;99.50;;;;;;5056265;28;20420;-68
2022/04/09 07:35:11;;;;;;;7.83;4.83;;;8.90;99.20;;;;;;5064875;28;20418;-68
2022/04/09 07:37:41;;;;;;;6.17;5.43;;;8.90;99.30;;;;;;5053724;28;20515;-69
2022/04/09 07:40:09;;;;;;;9.43;4.87;;;8.90;99.10;;;;;;5054831;28;20478;-68
2022/04/09 07:42:35;;;;;;;8.73;5.53;;;8.90;99.30;;;;;;5054146;28;20456;-79
2022/04/09 07:45:00;;;;;;;8.83;5.20;;;8.80;99.10;;;;;;5052845;28;20428;-68
2022/04/09 07:47:26;;;;;;;6.43;5.00;;;8.60;99.20;;;;;;5051831;28;20294;-68
2022/04/09 07:49:52;;;;;;;10.53;5.00;;;8.90;99.40;;;;;;5051394;28;20196;-69
2022/04/09 07:52:18;;;;;;;7.70;4.10;;;9.00;99.20;;;;;;5052179;28;20644;-68
2022/04/09 07:54:43;;;;;;;7.97;4.17;;;8.80;98.60;;;;;;5071232;28;20185;-68
2022/04/09 07:57:09;;;;;;;8.00;4.47;;;8.80;99.30;;;;;;5057643;28;20542;-68
2022/04/09 07:59:35;;;;;;;8.43;4.47;;;8.90;99.40;;;;;;5060018;28;20252;-69
2022/04/09 08:02:00;;;;;;;10.47;4.20;;;9.20;99.60;;;;;;5058228;28;20554;-69
2022/04/09 08:04:26;;;;;;;6.87;3.80;;;9.10;98.90;;;;;;5073088;28;20213;-68
2022/04/09 08:06:51;;;;;;;9.23;4.30;;;9.00;99.00;;;;;;5072555;28;20169;-68
2022/04/09 08:09:17;;;;;;;8.40;4.00;;;9.00;98.10;;;;;;5057954;28;20181;-68
2022/04/09 08:11:43;;;;;;;11.80;4.33;;;9.10;98.10;;;;;;5039599;28;20650;-68
2022/04/09 08:14:09;;;;;;;7.53;4.20;;;9.10;99.20;;;;;;5053423;28;20977;-68
2022/04/09 08:16:35;;;;;;;9.30;4.20;;;8.70;98.30;;;;;;5052313;28;20564;-69
2022/04/09 08:19:03;;;;;;;7.83;4.13;;;8.70;97.80;;;;;;5067918;28;20181;-68
2022/04/09 08:21:28;;;;;;;7.03;4.70;;;9.40;98.50;;;;;;5052512;28;20264;-68
2022/04/09 08:23:54;;;;;;;6.17;5.00;;;9.20;98.20;;;;;;5045053;28;20453;-69
2022/04/09 08:26:20;;;;;;;8.23;4.70;;;9.20;98.60;;;;;;5038125;28;20580;-68
2022/04/09 08:28:46;;;;;;;5.90;5.40;;;9.40;98.50;;;;;;5050530;28;20834;-68
2022/04/09 08:31:12;;;;;;;8.30;6.70;;;9.40;98.30;;;;;;5073765;28;20239;-68
2022/04/09 08:33:40;;;;;;;6.53;5.70;;;9.30;99.40;;;;;;5057772;28;20189;-69
2022/04/09 08:36:06;;;;;;;10.53;6.20;;;9.00;99.90;;;;;;5053529;28;20695;-68
2022/04/09 08:38:32;;;;;;;8.10;5.70;;;9.00;99.90;;;;;;5072682;28;20407;-68
2022/04/09 08:41:01;;;;;;;9.87;6.77;;;9.00;99.90;;;;;;5072152;28;20416;-68
2022/04/09 08:43:26;;;;;;;6.77;6.17;;;9.10;99.90;;;;;;5072521;28;20226;-68
2022/04/09 08:45:53;;;;;;;6.43;5.63;;;9.20;99.90;;;;;;5059916;28;20420;-68
2022/04/09 08:48:21;;;;;;;8.60;6.00;;;8.90;99.90;;;;;;5052499;28;20170;-68
2022/04/09 08:50:47;;;;;;;9.80;5.80;;;9.30;99.90;;;;;;5038385;28;20425;-68
2022/04/09 08:53:13;;;;;;;9.03;5.70;;;9.40;99.90;;;;;;5052204;28;20435;-68
2022/04/09 08:55:40;;;;;;;6.33;5.30;;;9.70;99.90;;;;;;5051506;28;20421;-78
2022/04/09 08:58:06;;;;;;;11.93;5.87;;;9.70;99.90;;;;;;5053500;28;20225;-68
2022/04/09 09:00:33;;;;;;;5.13;4.63;;;9.80;99.90;;;;;;5058017;28;20427;-69
2022/04/09 09:03:01;;;;;;;11.33;5.80;;;9.80;99.90;;;;;;5062186;28;20462;-68
2022/04/09 09:05:41;;;;;;;6.43;4.90;;;9.80;99.90;;;;;;5070558;28;20439;-68
2022/04/09 09:08:08;;;;;;;7.77;4.73;;;9.80;99.90;;;;;;5062532;28;20424;-68
2022/04/09 09:10:35;;;;;;;5.23;4.70;;;9.80;99.90;;;;;;5056483;28;20450;-68
2022/04/09 09:13:09;;;;;;;6.47;5.27;;;9.70;99.90;;;;;;5055985;28;20446;-67
2022/04/09 09:15:50;;;;;;;6.63;6.03;;;9.70;99.90;;;;;;5056303;28;20744;-68
2022/04/09 09:18:23;;;;;;;6.60;5.17;;;9.60;99.90;;;;;;5056086;28;20416;-68
2022/04/09 09:20:58;;;;;;;4.80;4.37;;;9.80;99.90;;;;;;5055496;28;20478;-68
2022/04/09 09:23:29;;;;;;;6.70;5.07;;;10.00;99.90;;;;;;5056070;28;20445;-68
2022/04/09 09:25:57;;;;;;;8.47;6.07;;;10.20;99.90;;;;;;5057792;28;20456;-68
2022/04/09 09:28:30;;;;;;;6.03;4.53;;;10.40;99.90;;;;;;5056247;28;20981;-68
2022/04/09 09:30:58;;;;;;;7.53;5.30;;;10.70;98.90;;;;;;5059714;28;20428;-68
2022/04/09 09:33:26;;;;;;;6.83;4.70;;;11.00;97.50;;;;;;5062751;28;20419;-68
2022/04/09 09:35:54;;;;;;;5.33;4.40;;;11.10;96.20;;;;;;5059140;28;20967;-68
2022/04/09 09:38:20;;;;;;;7.70;4.90;;;11.30;95.70;;;;;;5053508;28;20417;-68
2022/04/09 09:40:47;;;;;;;6.40;4.03;;;11.50;95.30;;;;;;5055018;28;20471;-68
2022/04/09 09:43:14;;;;;;;9.43;4.03;;;11.80;95.20;;;;;;5055584;28;20479;-68
2022/04/09 09:45:43;;;;;;;6.90;4.07;;;11.80;93.00;;;;;;5055286;28;20412;-69
2022/04/09 09:48:22;;;;;;;5.90;3.80;;;12.10;94.10;;;;;;5053723;28;20428;-68
2022/04/09 09:50:48;;;;;;;7.87;4.27;;;12.30;91.30;;;;;;5053724;28;20447;-68
2022/04/09 09:53:14;;;;;;;5.20;4.07;;;12.30;90.30;;;;;;5055899;28;20501;-68
2022/04/09 09:55:44;;;;;;;10.33;2.90;;;12.20;89.30;;;;;;5054764;28;20944;-75
2022/04/09 09:58:16;;;;;;;3.37;2.60;;;12.20;87.60;;;;;;5055519;28;20189;-68
2022/04/09 10:00:43;;;;;;;3.20;2.77;;;12.10;85.90;;;;;;5054145;28;20440;-67
2022/04/09 10:03:13;;;;;;;3.30;2.80;;;11.90;86.10;;;;;;5055140;28;20458;-68
2022/04/09 10:05:40;;;;;;;2.90;2.57;;;11.60;87.60;;;;;;5055398;28;20489;-68
2022/04/09 10:08:07;;;;;;;5.67;3.10;;;11.40;88.10;;;;;;5058335;28;20521;-69
2022/04/09 10:10:37;;;;;;;5.13;3.37;;;11.30;88.20;;;;;;5052843;28;20492;-68
2022/04/09 10:13:06;;;;;;;3.20;3.00;;;11.20;89.50;;;;;;5054392;28;20474;-68
2022/04/09 10:15:33;;;;;;;5.93;3.00;;;11.00;90.00;;;;;;5053583;28;20421;-68
2022/04/09 10:18:00;;;;;;;4.63;2.57;;;11.00;90.00;;;;;;5036699;28;20394;-68
2022/04/09 10:20:28;;;;;;;7.00;2.90;;;10.80;91.00;;;;;;5054767;28;20832;-68
2022/04/09 10:23:01;;;;;;;3.17;2.87;;;10.70;90.70;;;;;;5052707;28;20870;-68
2022/04/09 10:25:29;;;;;;;3.67;3.10;;;10.50;90.90;;;;;;5054570;28;20421;-68
2022/04/09 10:28:03;;;;;;;3.27;3.07;;;10.50;91.50;;;;;;5052821;28;20822;-68
2022/04/09 10:30:37;;;;;;;3.60;3.30;;;10.50;92.10;;;;;;5055010;28;20398;-67
2022/04/09 10:33:03;;;;;;;3.43;2.60;;;10.70;91.80;;;;;;5054066;28;20459;-67
2022/04/09 10:35:39;;;;;;;2.73;2.53;;;10.90;91.10;;;;;;5054886;28;20817;-68
2022/04/09 10:38:09;;;;;;;2.20;2.10;;;11.20;92.20;;;;;;5054150;28;20422;-69
2022/04/09 10:40:52;;;;;;;2.63;2.43;;;11.60;91.20;;;;;;5053737;28;20424;-68
2022/04/09 10:43:21;;;;;;;2.20;2.10;;;12.00;89.50;;;;;;5054879;28;20458;-68
2022/04/09 10:46:05;;;;;;;2.57;2.20;;;12.40;89.30;;;;;;5043310;28;20507;-69
2022/04/09 10:48:36;;;;;;;2.77;2.40;;;12.60;86.20;;;;;;5040950;28;20761;-69
2022/04/09 10:51:07;;;;;;;2.60;2.40;;;12.60;81.70;;;;;;5059359;28;20428;-68
2022/04/09 10:53:47;;;;;;;3.10;2.90;;;12.50;81.80;;;;;;5049427;28;20780;-68
2022/04/09 10:56:20;;;;;;;51.80;33.23;;;12.40;84.30;;;;;;5054375;28;20407;-68
2022/04/09 10:59:04;;;;;;;11.30;8.50;;;12.40;83.30;;;;;;5053270;28;20420;-69
2022/04/09 11:04:34;;;;;;;105.50;51.50;;;12.80;83.60;;;;;;5046281;28;20453;-68
2022/04/09 11:07:09;;;;;;;9.07;3.30;;;13.00;82.10;;;;;;5053850;28;20941;-69
2022/04/09 11:09:42;;;;;;;21.83;15.47;;;13.30;81.20;;;;;;5054216;28;20448;-69
2022/04/09 11:12:08;;;;;;;17.80;13.73;;;13.50;81.10;;;;;;5053596;28;20521;-69
2022/04/09 11:14:47;;;;;;;3.57;3.23;;;13.60;81.60;;;;;;5045651;28;20434;-68
2022/04/09 11:17:24;;;;;;;5.57;3.53;;;13.60;79.50;;;;;;5036255;28;20414;-71
2022/04/09 11:19:50;;;;;;;4.00;2.93;;;13.60;75.70;;;;;;5044975;28;20796;-71
2022/04/09 11:22:17;;;;;;;3.97;3.60;;;13.80;78.60;;;;;;5053797;28;20435;-71
2022/04/09 11:24:42;;;;;;;4.53;3.60;;;13.90;73.70;;;;;;5053696;28;20427;-70
2022/04/09 11:27:10;;;;;;;3.70;3.37;;;13.90;74.10;;;;;;5053334;28;20415;-70
2022/04/09 11:29:38;;;;;;;4.47;4.10;;;13.80;72.70;;;;;;5053555;28;20182;-70
2022/04/09 11:32:04;;;;;;;5.53;3.23;;;13.70;72.50;;;;;;5053173;28;20407;-70
2022/04/09 11:34:50;;;;;;;3.60;3.20;;;13.60;76.10;;;;;;5048981;28;20510;-70
2022/04/09 11:37:16;;;;;;;6.10;3.80;;;13.10;75.50;;;;;;5049697;28;20425;-70
2022/04/09 11:39:45;;;;;;;5.23;4.93;;;12.80;73.90;;;;;;5039764;28;20913;-69
2022/04/09 11:42:11;;;;;;;3.40;3.10;;;12.60;83.00;;;;;;5035658;28;20428;-68
2022/04/09 11:44:40;;;;;;;2.30;2.10;;;12.20;87.30;;;;;;5032957;28;20526;-68
2022/04/09 11:47:17;;;;;;;1.93;1.83;;;11.70;90.40;;;;;;5031475;28;20438;-69
2022/04/09 11:49:49;;;;;;;2.03;1.93;;;11.30;91.10;;;;;;5041341;28;20419;-68
2022/04/09 11:52:29;;;;;;;2.17;2.07;;;10.70;93.40;;;;;;5051395;28;20409;-69
2022/04/09 11:54:55;;;;;;;2.00;1.93;;;10.30;95.30;;;;;;5050864;28;20426;-69
2022/04/09 11:57:22;;;;;;;1.77;1.67;;;10.10;96.80;;;;;;5052958;28;20413;-68
2022/04/09 11:59:52;;;;;;;2.23;2.13;;;9.90;98.00;;;;;;5052508;28;20822;-77
2022/04/09 12:02:25;;;;;;;3.83;2.10;;;9.40;98.80;;;;;;5035235;28;20475;-68
2022/04/09 12:04:56;;;;;;;2.40;2.30;;;9.20;99.90;;;;;;5044667;28;20428;-76
2022/04/09 12:07:24;;;;;;;3.03;1.90;;;9.10;99.20;;;;;;5033177;28;20408;-68
2022/04/09 12:09:50;;;;;;;2.27;2.17;;;8.90;99.90;;;;;;5032467;28;20759;-78
2022/04/09 12:12:22;;;;;;;1.70;1.70;;;9.10;99.90;;;;;;5033004;28;20524;-67
2022/04/09 12:14:56;;;;;;;2.87;2.67;;;9.20;99.90;;;;;;5032651;28;20181;-77
2022/04/09 12:17:34;;;;;;;2.90;2.60;;;9.40;99.90;;;;;;5047185;28;20428;-68
2022/04/09 12:20:49;;;;;;;2.70;2.60;;;9.60;99.90;;;;;;5051629;28;20467;-68
2022/04/09 12:23:27;;;;;;;2.30;2.20;;;9.90;99.90;;;;;;5041783;28;20464;-68
2022/04/09 12:25:52;;;;;;;2.17;1.80;;;10.20;99.80;;;;;;5031866;28;20439;-77
2022/04/09 12:28:32;;;;;;;2.73;2.67;;;10.60;99.60;;;;;;5037199;28;20424;-67
2022/04/09 12:31:00;;;;;;;2.60;2.50;;;11.00;98.40;;;;;;5052593;28;20197;-67
2022/04/09 12:33:26;;;;;;;2.87;2.77;;;11.30;97.90;;;;;;5057998;28;20454;-68
2022/04/09 12:36:08;;;;;;;3.03;2.83;;;11.60;98.20;;;;;;5072309;28;20420;-69
2022/04/09 12:38:41;;;;;;;3.67;3.37;;;11.90;99.00;;;;;;5046851;28;20417;-68
2022/04/09 12:41:07;;;;;;;3.07;2.87;;;12.20;96.40;;;;;;5045069;28;20927;-68
2022/04/09 12:43:41;;;;;;;3.60;3.40;;;12.60;96.30;;;;;;5048291;28;20460;-68
2022/04/09 12:46:12;;;;;;;3.40;3.07;;;12.70;94.70;;;;;;5049379;28;20431;-68
2022/04/09 12:48:49;;;;;;;2.93;2.73;;;12.90;94.00;;;;;;5052219;28;20509;-68
2022/04/09 12:51:20;;;;;;;3.47;3.17;;;13.10;92.50;;;;;;5049563;28;20475;-68
2022/04/09 12:53:55;;;;;;;3.30;3.00;;;13.30;91.90;;;;;;5051997;28;20764;-68
2022/04/09 12:56:21;;;;;;;3.00;2.70;;;13.30;90.80;;;;;;5040306;28;20419;-68
2022/04/09 12:58:47;;;;;;;3.33;3.00;;;13.50;90.20;;;;;;5032097;28;20415;-68